sensor_id;sensor_type;location;lat;lon;timestamp;pressure;altitude;pressure_sealevel;temperature;humidity
5877;BME280;2964;42.144;24.730;2023-03-09T00:02:17;143954.41;;;9.51;71.02
5877;BME280;2964;42.144;24.730;2023-03-09T00:04:44;143884.16;;;9.22;73.46
5877;BME280;2964;42.144;24.730;2023-03-09T00:07:11;143910.47;;;9.33;73.04
5877;BME280;2964;42.144;24.730;2023-03-09T00:09:37;143865.28;;;9.15;74.00
5877;BME280;2964;42.144;24.730;2023-03-09T00:12:06;143836.47;;;9.03;74.58
5877;BME280;2964;42.144;24.730;2023-03-09T00:14:33;143905.44;;;9.31;73.56
5877;BME280;2964;42.144;24.730;2023-03-09T00:17:00;143939.34;;;9.45;72.71
5877;BME280;2964;42.144;24.730;2023-03-09T00:19:26;143833.97;;;9.02;74.20
5877;BME280;2964;42.144;24.730;2023-03-09T00:21:56;143803.84;;;8.89;75.97
5877;BME280;2964;42.144;24.730;2023-03-09T00:24:25;143772.50;;;8.77;77.04
5877;BME280;2964;42.144;24.730;2023-03-09T00:26:54;143774.97;;;8.78;77.47
5877;BME280;2964;42.144;24.730;2023-03-09T00:29:24;143754.94;;;8.69;78.39
5877;BME280;2964;42.144;24.730;2023-03-09T00:31:51;143772.50;;;8.77;78.10
5877;BME280;2964;42.144;24.730;2023-03-09T00:34:18;143764.94;;;8.74;77.27
5877;BME280;2964;42.144;24.730;2023-03-09T00:36:46;143763.72;;;8.73;78.01
5877;BME280;2964;42.144;24.730;2023-03-09T00:39:14;143724.81;;;8.57;78.89
5877;BME280;2964;42.144;24.730;2023-03-09T00:41:42;143702.25;;;8.48;79.68
5877;BME280;2964;42.144;24.730;2023-03-09T00:44:10;143742.38;;;8.64;77.93
5877;BME280;2964;42.144;24.730;2023-03-09T00:46:39;143697.22;;;8.46;79.73
5877;BME280;2964;42.144;24.730;2023-03-09T00:49:06;143669.59;;;8.35;79.99
5877;BME280;2964;42.144;24.730;2023-03-09T00:51:33;143724.81;;;8.57;79.34
5877;BME280;2964;42.144;24.730;2023-03-09T00:54:01;143805.09;;;8.90;76.34
5877;BME280;2964;42.144;24.730;2023-03-09T00:56:29;143739.91;;;8.63;76.71
5877;BME280;2964;42.144;24.730;2023-03-09T00:58:56;143778.75;;;8.79;76.13
5877;BME280;2964;42.144;24.730;2023-03-09T01:01:23;143795.06;;;8.86;75.89
5877;BME280;2964;42.144;24.730;2023-03-09T01:03:52;143764.94;;;8.74;75.94
5877;BME280;2964;42.144;24.730;2023-03-09T01:06:19;143777.50;;;8.79;75.59
5877;BME280;2964;42.144;24.730;2023-03-09T01:08:46;143806.34;;;8.91;75.13
5877;BME280;2964;42.144;24.730;2023-03-09T01:11:15;143906.75;;;9.32;72.01
5877;BME280;2964;42.144;24.730;2023-03-09T01:13:42;143844.00;;;9.06;73.46
5877;BME280;2964;42.144;24.730;2023-03-09T01:16:09;143832.69;;;9.01;74.05
5877;BME280;2964;42.144;24.730;2023-03-09T01:18:36;143752.41;;;8.68;73.22
5877;BME280;2964;42.144;24.730;2023-03-09T01:21:04;143679.63;;;8.39;73.19
5877;BME280;2964;42.144;24.730;2023-03-09T01:23:32;143810.09;;;8.92;73.85
5877;BME280;2964;42.144;24.730;2023-03-09T01:25:59;143801.31;;;8.88;73.90
5877;BME280;2964;42.144;24.730;2023-03-09T01:28:25;143738.59;;;8.63;74.92
5877;BME280;2964;42.144;24.730;2023-03-09T01:30:52;143762.47;;;8.73;76.45
5877;BME280;2964;42.144;24.730;2023-03-09T01:33:19;143810.09;;;8.92;74.55
5877;BME280;2964;42.144;24.730;2023-03-09T01:35:46;143815.13;;;8.94;73.85
5877;BME280;2964;42.144;24.730;2023-03-09T01:38:14;143727.34;;;8.58;74.48
5877;BME280;2964;42.144;24.730;2023-03-09T01:40:44;143879.13;;;9.20;72.18
5877;BME280;2964;42.144;24.730;2023-03-09T01:43:27;143850.25;;;9.08;71.72
5877;BME280;2964;42.144;24.730;2023-03-09T01:49:17;143801.31;;;8.88;73.35
5877;BME280;2964;42.144;24.730;2023-03-09T01:51:48;143800.06;;;8.88;73.36
5877;BME280;2964;42.144;24.730;2023-03-09T01:54:21;143812.63;;;8.93;72.56
5877;BME280;2964;42.144;24.730;2023-03-09T01:56:52;143802.59;;;8.89;73.53
5877;BME280;2964;42.144;24.730;2023-03-09T01:59:21;143787.53;;;8.83;76.02
5877;BME280;2964;42.144;24.730;2023-03-09T02:01:49;143801.31;;;8.88;75.78
5877;BME280;2964;42.144;24.730;2023-03-09T02:04:21;143741.13;;;8.64;73.45
5877;BME280;2964;42.144;24.730;2023-03-09T02:06:49;143756.16;;;8.70;75.18
5877;BME280;2964;42.144;24.730;2023-03-09T02:09:23;143754.94;;;8.69;74.29
5877;BME280;2964;42.144;24.730;2023-03-09T02:11:51;143788.75;;;8.83;73.39
5877;BME280;2964;42.144;24.730;2023-03-09T02:14:19;143668.38;;;8.34;75.16
5877;BME280;2964;42.144;24.730;2023-03-09T02:16:46;143762.47;;;8.73;74.87
5877;BME280;2964;42.144;24.730;2023-03-09T02:19:19;143851.50;;;9.09;72.42
5877;BME280;2964;42.144;24.730;2023-03-09T02:21:50;143810.09;;;8.92;73.16
5877;BME280;2964;42.144;24.730;2023-03-09T02:24:26;143792.53;;;8.85;73.41
5877;BME280;2964;42.144;24.730;2023-03-09T02:26:57;143889.16;;;9.24;70.93
5877;BME280;2964;42.144;24.730;2023-03-09T02:29:27;143889.16;;;9.24;69.56
5877;BME280;2964;42.144;24.730;2023-03-09T02:31:56;143871.59;;;9.17;70.69
5877;BME280;2964;42.144;24.730;2023-03-09T02:34:23;143866.56;;;9.15;70.61
5877;BME280;2964;42.144;24.730;2023-03-09T02:36:49;143885.38;;;9.23;70.63
5877;BME280;2964;42.144;24.730;2023-03-09T02:39:23;143874.06;;;9.18;70.72
5877;BME280;2964;42.144;24.730;2023-03-09T02:41:53;143934.34;;;9.43;69.50
5877;BME280;2964;42.144;24.730;2023-03-09T02:44:22;143994.56;;;9.68;67.44
5877;BME280;2964;42.144;24.730;2023-03-09T02:46:50;143906.75;;;9.32;70.38
5877;BME280;2964;42.144;24.730;2023-03-09T02:49:17;143901.72;;;9.30;71.42
5877;BME280;2964;42.144;24.730;2023-03-09T02:51:44;143867.81;;;9.16;71.87
5877;BME280;2964;42.144;24.730;2023-03-09T02:54:10;143921.78;;;9.38;71.28
5877;BME280;2964;42.144;24.730;2023-03-09T02:56:37;143954.41;;;9.51;69.84
5877;BME280;2964;42.144;24.730;2023-03-09T02:59:04;143960.69;;;9.54;67.53
5877;BME280;2964;42.144;24.730;2023-03-09T03:01:30;143988.31;;;9.65;69.03
5877;BME280;2964;42.144;24.730;2023-03-09T03:03:58;143995.81;;;9.68;68.35
5877;BME280;2964;42.144;24.730;2023-03-09T03:06:25;143940.59;;;9.45;68.22
5877;BME280;2964;42.144;24.730;2023-03-09T03:08:52;143934.34;;;9.43;68.21
5877;BME280;2964;42.144;24.730;2023-03-09T03:11:18;143890.41;;;9.25;71.00
5877;BME280;2964;42.144;24.730;2023-03-09T03:13:45;144023.47;;;9.79;67.86
5877;BME280;2964;42.144;24.730;2023-03-09T03:16:12;144033.50;;;9.83;66.18
5877;BME280;2964;42.144;24.730;2023-03-09T03:18:38;144012.13;;;9.75;67.28
5877;BME280;2964;42.144;24.730;2023-03-09T03:21:06;144044.75;;;9.88;65.96
5877;BME280;2964;42.144;24.730;2023-03-09T03:23:33;143959.41;;;9.53;67.89
5877;BME280;2964;42.144;24.730;2023-03-09T03:26:04;143963.19;;;9.55;68.34
5877;BME280;2964;42.144;24.730;2023-03-09T03:28:31;143950.63;;;9.50;68.86
5877;BME280;2964;42.144;24.730;2023-03-09T03:30:58;143928.03;;;9.40;69.64
5877;BME280;2964;42.144;24.730;2023-03-09T03:33:25;143965.72;;;9.56;68.76
5877;BME280;2964;42.144;24.730;2023-03-09T03:35:52;143855.25;;;9.11;71.52
5877;BME280;2964;42.144;24.730;2023-03-09T03:38:20;143944.38;;;9.47;68.87
5877;BME280;2964;42.144;24.730;2023-03-09T03:40:47;143990.78;;;9.66;66.55
5877;BME280;2964;42.144;24.730;2023-03-09T03:43:14;143891.66;;;9.25;67.79
5877;BME280;2964;42.144;24.730;2023-03-09T03:45:41;143798.84;;;8.87;71.74
5877;BME280;2964;42.144;24.730;2023-03-09T03:48:07;143749.91;;;8.67;72.40
5877;BME280;2964;42.144;24.730;2023-03-09T03:50:34;143711.03;;;8.52;75.19
5877;BME280;2964;42.144;24.730;2023-03-09T03:53:01;143669.59;;;8.35;75.85
5877;BME280;2964;42.144;24.730;2023-03-09T03:55:29;143721.03;;;8.56;73.51
5877;BME280;2964;42.144;24.730;2023-03-09T03:57:56;143698.47;;;8.46;71.91
5877;BME280;2964;42.144;24.730;2023-03-09T04:00:23;143696.00;;;8.45;75.65
5877;BME280;2964;42.144;24.730;2023-03-09T04:02:50;143674.63;;;8.37;74.54
5877;BME280;2964;42.144;24.730;2023-03-09T04:05:16;143772.50;;;8.77;71.26
5877;BME280;2964;42.144;24.730;2023-03-09T04:07:43;143706.00;;;8.49;71.34
5877;BME280;2964;42.144;24.730;2023-03-09T04:10:10;143724.81;;;8.57;72.77
5877;BME280;2964;42.144;24.730;2023-03-09T04:12:38;143697.22;;;8.46;73.54
5877;BME280;2964;42.144;24.730;2023-03-09T04:15:06;143707.25;;;8.50;70.94
5877;BME280;2964;42.144;24.730;2023-03-09T04:17:33;143754.94;;;8.69;70.32
5877;BME280;2964;42.144;24.730;2023-03-09T04:19:59;143688.47;;;8.42;72.94
5877;BME280;2964;42.144;24.730;2023-03-09T04:22:26;143742.38;;;8.64;71.24
5877;BME280;2964;42.144;24.730;2023-03-09T04:24:53;143668.38;;;8.34;72.94
5877;BME280;2964;42.144;24.730;2023-03-09T04:27:19;143637.03;;;8.21;74.80
5877;BME280;2964;42.144;24.730;2023-03-09T04:29:48;143672.13;;;8.36;74.18
5877;BME280;2964;42.144;24.730;2023-03-09T04:32:14;143675.84;;;8.37;74.28
5877;BME280;2964;42.144;24.730;2023-03-09T04:34:41;143627.00;;;8.17;77.45
5877;BME280;2964;42.144;24.730;2023-03-09T04:37:08;143675.84;;;8.37;75.06
5877;BME280;2964;42.144;24.730;2023-03-09T04:39:37;143620.72;;;8.15;76.78
5877;BME280;2964;42.144;24.730;2023-03-09T04:42:03;143678.38;;;8.38;76.07
5877;BME280;2964;42.144;24.730;2023-03-09T04:44:30;143620.72;;;8.15;78.27
5877;BME280;2964;42.144;24.730;2023-03-09T04:46:58;143629.47;;;8.18;78.62
5877;BME280;2964;42.144;24.730;2023-03-09T04:49:25;143629.47;;;8.18;79.37
5877;BME280;2964;42.144;24.730;2023-03-09T04:51:52;143689.75;;;8.43;76.57
5877;BME280;2964;42.144;24.730;2023-03-09T04:54:18;143608.16;;;8.09;78.24
5877;BME280;2964;42.144;24.730;2023-03-09T04:56:45;143611.94;;;8.11;78.39
5877;BME280;2964;42.144;24.730;2023-03-09T04:59:12;143555.53;;;7.88;79.55
5877;BME280;2964;42.144;24.730;2023-03-09T05:01:38;143596.91;;;8.05;78.76
5877;BME280;2964;42.144;24.730;2023-03-09T05:04:08;143578.09;;;7.97;79.59
5877;BME280;2964;42.144;24.730;2023-03-09T05:06:35;143574.34;;;7.96;80.92
5877;BME280;2964;42.144;24.730;2023-03-09T05:09:02;143682.16;;;8.40;77.40
5877;BME280;2964;42.144;24.730;2023-03-09T05:11:30;143644.50;;;8.24;77.87
5877;BME280;2964;42.144;24.730;2023-03-09T05:13:57;143611.94;;;8.11;80.41
5877;BME280;2964;42.144;24.730;2023-03-09T05:16:24;143727.34;;;8.58;75.77
5877;BME280;2964;42.144;24.730;2023-03-09T05:18:54;143606.91;;;8.09;78.17
5877;BME280;2964;42.144;24.730;2023-03-09T05:21:22;143634.50;;;8.20;79.40
5877;BME280;2964;42.144;24.730;2023-03-09T05:23:48;143672.13;;;8.36;78.28
5877;BME280;2964;42.144;24.730;2023-03-09T05:26:15;143711.03;;;8.52;76.22
5877;BME280;2964;42.144;24.730;2023-03-09T05:28:42;143703.53;;;8.48;76.50
5877;BME280;2964;42.144;24.730;2023-03-09T05:31:10;143724.81;;;8.57;75.62
5877;BME280;2964;42.144;24.730;2023-03-09T05:33:37;143850.25;;;9.08;71.14
5877;BME280;2964;42.144;24.730;2023-03-09T05:36:14;143877.84;;;9.20;69.95
5877;BME280;2964;42.144;24.730;2023-03-09T05:38:42;143862.81;;;9.14;69.11
5877;BME280;2964;42.144;24.730;2023-03-09T05:41:09;143840.22;;;9.04;70.15
5877;BME280;2964;42.144;24.730;2023-03-09T05:43:35;143840.22;;;9.04;70.79
5877;BME280;2964;42.144;24.730;2023-03-09T05:46:07;143845.25;;;9.06;71.70
5877;BME280;2964;42.144;24.730;2023-03-09T05:48:33;143921.78;;;9.38;68.55
5877;BME280;2964;42.144;24.730;2023-03-09T05:51:00;143949.38;;;9.49;68.74
5877;BME280;2964;42.144;24.730;2023-03-09T05:53:27;143920.53;;;9.37;70.63
5877;BME280;2964;42.144;24.730;2023-03-09T05:55:56;144064.88;;;9.96;66.98
5877;BME280;2964;42.144;24.730;2023-03-09T05:58:23;144030.97;;;9.82;67.10
5877;BME280;2964;42.144;24.730;2023-03-09T06:00:50;144032.19;;;9.83;67.51
5877;BME280;2964;42.144;24.730;2023-03-09T06:03:17;144057.34;;;9.93;69.27
5877;BME280;2964;42.144;24.730;2023-03-09T06:05:44;144142.72;;;10.28;65.66
5877;BME280;2964;42.144;24.730;2023-03-09T06:08:11;144143.97;;;10.29;65.92
5877;BME280;2964;42.144;24.730;2023-03-09T06:10:37;144187.97;;;10.47;65.63
5877;BME280;2964;42.144;24.730;2023-03-09T06:13:05;144309.81;;;10.96;64.30
5877;BME280;2964;42.144;24.730;2023-03-09T06:15:32;144367.63;;;11.20;62.79
5877;BME280;2964;42.144;24.730;2023-03-09T06:17:59;144352.53;;;11.14;62.84
5877;BME280;2964;42.144;24.730;2023-03-09T06:20:26;144456.88;;;11.56;60.88
5877;BME280;2964;42.144;24.730;2023-03-09T06:22:52;144513.44;;;11.79;58.26
5877;BME280;2964;42.144;24.730;2023-03-09T06:25:19;144850.66;;;13.17;55.20
5877;BME280;2964;42.144;24.730;2023-03-09T06:27:46;145324.31;;;15.10;49.38
5877;BME280;2964;42.144;24.730;2023-03-09T06:30:14;145725.47;;;16.73;44.49
5877;BME280;2964;42.144;24.730;2023-03-09T06:32:41;145849.22;;;17.24;42.94
5877;BME280;2964;42.144;24.730;2023-03-09T06:35:08;145884.59;;;17.38;41.74
5877;BME280;2964;42.144;24.730;2023-03-09T06:37:35;145792.44;;;17.01;42.30
5877;BME280;2964;42.144;24.730;2023-03-09T06:40:01;145591.72;;;16.19;44.67
5877;BME280;2964;42.144;24.730;2023-03-09T06:42:30;145470.59;;;15.70;45.58
5877;BME280;2964;42.144;24.730;2023-03-09T06:44:57;145606.88;;;16.25;45.06
5877;BME280;2964;42.144;24.730;2023-03-09T06:47:25;145609.38;;;16.26;45.81
5877;BME280;2964;42.144;24.730;2023-03-09T06:49:51;145437.78;;;15.56;45.88
5877;BME280;2964;42.144;24.730;2023-03-09T06:52:19;145516.06;;;15.88;45.94
5877;BME280;2964;42.144;24.730;2023-03-09T06:54:45;145609.38;;;16.26;42.47
5877;BME280;2964;42.144;24.730;2023-03-09T06:57:12;145543.81;;;15.99;43.30
5877;BME280;2964;42.144;24.730;2023-03-09T06:59:39;145533.72;;;15.95;43.59
5877;BME280;2964;42.144;24.730;2023-03-09T07:02:07;145528.63;;;15.93;43.43
5877;BME280;2964;42.144;24.730;2023-03-09T07:04:36;145463.03;;;15.67;43.70
5877;BME280;2964;42.144;24.730;2023-03-09T07:07:03;145502.19;;;15.82;43.85
5877;BME280;2964;42.144;24.730;2023-03-09T07:09:30;145358.38;;;15.24;44.29
5877;BME280;2964;42.144;24.730;2023-03-09T07:11:57;145352.03;;;15.21;44.91
5877;BME280;2964;42.144;24.730;2023-03-09T07:14:27;145313.00;;;15.05;44.78
5877;BME280;2964;42.144;24.730;2023-03-09T07:16:55;145364.66;;;15.27;45.33
5877;BME280;2964;42.144;24.730;2023-03-09T07:19:22;145283.97;;;14.94;45.94
5877;BME280;2964;42.144;24.730;2023-03-09T07:21:50;145468.06;;;15.69;45.20
5877;BME280;2964;42.144;24.730;2023-03-09T07:24:18;145406.25;;;15.43;46.82
5877;BME280;2964;42.144;24.730;2023-03-09T07:26:46;145397.44;;;15.40;45.38
5877;BME280;2964;42.144;24.730;2023-03-09T07:29:13;145445.38;;;15.59;45.00
5877;BME280;2964;42.144;24.730;2023-03-09T07:31:39;145543.81;;;15.99;44.38
5877;BME280;2964;42.144;24.730;2023-03-09T07:34:06;145502.19;;;15.82;45.29
5877;BME280;2964;42.144;24.730;2023-03-09T07:36:33;145536.22;;;15.96;44.93
5877;BME280;2964;42.144;24.730;2023-03-09T07:39:01;145286.53;;;14.95;47.10
5877;BME280;2964;42.144;24.730;2023-03-09T07:41:28;145382.31;;;15.34;48.84
5877;BME280;2964;42.144;24.730;2023-03-09T07:43:54;145553.88;;;16.04;44.81
5877;BME280;2964;42.144;24.730;2023-03-09T07:46:21;145347.00;;;15.19;47.16
5877;BME280;2964;42.144;24.730;2023-03-09T07:48:48;145384.84;;;15.35;46.57
5877;BME280;2964;42.144;24.730;2023-03-09T07:51:15;145457.97;;;15.64;46.00
5877;BME280;2964;42.144;24.730;2023-03-09T07:53:42;145519.78;;;15.90;45.24
5877;BME280;2964;42.144;24.730;2023-03-09T07:56:10;145577.84;;;16.13;45.46
5877;BME280;2964;42.144;24.730;2023-03-09T07:58:38;145465.53;;;15.68;45.16
5877;BME280;2964;42.144;24.730;2023-03-09T08:01:06;145716.66;;;16.70;44.98
5877;BME280;2964;42.144;24.730;2023-03-09T08:03:33;145483.22;;;15.75;44.92
5877;BME280;2964;42.144;24.730;2023-03-09T08:06:01;145629.59;;;16.34;45.51
5877;BME280;2964;42.144;24.730;2023-03-09T08:08:31;145770.97;;;16.92;44.95
5877;BME280;2964;42.144;24.730;2023-03-09T08:10:59;145847.97;;;17.23;44.69
5877;BME280;2964;42.144;24.730;2023-03-09T08:13:27;145805.03;;;17.06;44.21
5877;BME280;2964;42.144;24.730;2023-03-09T08:15:53;145811.38;;;17.08;42.85
5877;BME280;2964;42.144;24.730;2023-03-09T08:18:20;145710.31;;;16.67;43.83
5877;BME280;2964;42.144;24.730;2023-03-09T08:20:47;145801.28;;;17.04;43.70
5877;BME280;2964;42.144;24.730;2023-03-09T08:23:14;145967.91;;;17.72;42.32
5877;BME280;2964;42.144;24.730;2023-03-09T08:25:40;145984.34;;;17.79;43.43
5877;BME280;2964;42.144;24.730;2023-03-09T08:28:08;146023.56;;;17.94;42.04
5877;BME280;2964;42.144;24.730;2023-03-09T08:30:37;145967.91;;;17.72;41.99
5877;BME280;2964;42.144;24.730;2023-03-09T08:33:04;146080.41;;;18.18;41.93
5877;BME280;2964;42.144;24.730;2023-03-09T08:35:31;145770.97;;;16.92;42.31
5877;BME280;2964;42.144;24.730;2023-03-09T08:37:58;146027.31;;;17.96;41.76
5877;BME280;2964;42.144;24.730;2023-03-09T08:40:25;146099.34;;;18.25;42.09
5877;BME280;2964;42.144;24.730;2023-03-09T08:42:52;146216.88;;;18.73;40.06
5877;BME280;2964;42.144;24.730;2023-03-09T08:45:19;146305.44;;;19.09;39.48
5877;BME280;2964;42.144;24.730;2023-03-09T08:47:47;146309.19;;;19.10;38.57
5877;BME280;2964;42.144;24.730;2023-03-09T08:50:14;146482.53;;;19.81;37.71
5877;BME280;2964;42.144;24.730;2023-03-09T08:52:40;146615.34;;;20.35;37.04
5877;BME280;2964;42.144;24.730;2023-03-09T08:55:09;146128.44;;;18.37;40.09
5877;BME280;2964;42.144;24.730;2023-03-09T08:57:36;146510.34;;;19.92;38.71
5877;BME280;2964;42.144;24.730;2023-03-09T09:00:05;146648.22;;;20.48;37.59
5877;BME280;2964;42.144;24.730;2023-03-09T09:02:33;146591.28;;;20.25;36.37
5877;BME280;2964;42.144;24.730;2023-03-09T09:05:02;146445.75;;;19.66;38.33
5877;BME280;2964;42.144;24.730;2023-03-09T09:07:29;146187.81;;;18.61;40.26
5877;BME280;2964;42.144;24.730;2023-03-09T09:09:55;146104.38;;;18.27;41.48
5877;BME280;2964;42.144;24.730;2023-03-09T09:12:23;146128.44;;;18.37;41.09
5877;BME280;2964;42.144;24.730;2023-03-09T09:14:53;146015.97;;;17.91;39.99
5877;BME280;2964;42.144;24.730;2023-03-09T09:17:20;146157.47;;;18.49;41.74
5877;BME280;2964;42.144;24.730;2023-03-09T09:19:46;146291.53;;;19.03;38.17
5877;BME280;2964;42.144;24.730;2023-03-09T09:22:14;146345.84;;;19.25;38.56
5877;BME280;2964;42.144;24.730;2023-03-09T09:24:41;146547.03;;;20.07;37.19
5877;BME280;2964;42.144;24.730;2023-03-09T09:27:09;146564.75;;;20.14;37.50
5877;BME280;2964;42.144;24.730;2023-03-09T09:29:36;146657.09;;;20.52;35.47
5877;BME280;2964;42.144;24.730;2023-03-09T09:32:05;146882.47;;;21.43;34.55
5877;BME280;2964;42.144;24.730;2023-03-09T09:34:32;146924.34;;;21.60;33.13
5877;BME280;2964;42.144;24.730;2023-03-09T09:37:00;147146.06;;;22.50;33.47
5877;BME280;2964;42.144;24.730;2023-03-09T09:39:29;147333.75;;;23.26;31.98
5877;BME280;2964;42.144;24.730;2023-03-09T09:41:59;147465.69;;;23.79;31.60
5877;BME280;2964;42.144;24.730;2023-03-09T09:44:29;147710.56;;;24.78;29.54
5877;BME280;2964;42.144;24.730;2023-03-09T09:46:59;147433.91;;;23.66;29.52
5877;BME280;2964;42.144;24.730;2023-03-09T09:49:28;147373.00;;;23.42;29.34
5877;BME280;2964;42.144;24.730;2023-03-09T09:52:08;146993.97;;;21.88;31.74
5877;BME280;2964;42.144;24.730;2023-03-09T09:54:44;146644.44;;;20.47;33.88
5877;BME280;2964;42.144;24.730;2023-03-09T09:57:16;146822.94;;;21.19;32.78
5877;BME280;2964;42.144;24.730;2023-03-09T09:59:51;146906.59;;;21.53;32.08
5877;BME280;2964;42.144;24.730;2023-03-09T10:02:40;146807.78;;;21.13;32.50
5877;BME280;2964;42.144;24.730;2023-03-09T10:05:15;147142.28;;;22.48;31.72
5877;BME280;2964;42.144;24.730;2023-03-09T10:07:43;147452.94;;;23.74;29.68
5877;BME280;2964;42.144;24.730;2023-03-09T10:10:17;147993.81;;;25.93;28.04
5877;BME280;2964;42.144;24.730;2023-03-09T10:12:46;148203.47;;;26.77;26.14
5877;BME280;2964;42.144;24.730;2023-03-09T10:15:17;147487.22;;;23.88;29.28
5877;BME280;2964;42.144;24.730;2023-03-09T10:17:49;147823.59;;;25.24;28.92
5877;BME280;2964;42.144;24.730;2023-03-09T10:20:23;147393.34;;;23.50;29.61
5877;BME280;2964;42.144;24.730;2023-03-09T10:22:54;147182.81;;;22.65;30.57
5877;BME280;2964;42.144;24.730;2023-03-09T10:25:24;146721.69;;;20.78;33.47
5877;BME280;2964;42.144;24.730;2023-03-09T10:27:55;146985.13;;;21.85;33.34
5877;BME280;2964;42.144;24.730;2023-03-09T10:30:34;146934.47;;;21.64;32.65
5877;BME280;2964;42.144;24.730;2023-03-09T10:33:05;146873.63;;;21.39;32.44
5877;BME280;2964;42.144;24.730;2023-03-09T10:35:40;146602.69;;;20.30;33.27
5877;BME280;2964;42.144;24.730;2023-03-09T10:38:13;146863.47;;;21.35;33.51
5877;BME280;2964;42.144;24.730;2023-03-09T10:40:45;146910.41;;;21.54;34.13
5877;BME280;2964;42.144;24.730;2023-03-09T10:43:18;146724.25;;;20.79;33.62
5877;BME280;2964;42.144;24.730;2023-03-09T10:45:46;146697.66;;;20.68;35.62
5877;BME280;2964;42.144;24.730;2023-03-09T10:48:19;146701.47;;;20.70;36.12
5877;BME280;2964;42.144;24.730;2023-03-09T10:50:55;146720.44;;;20.77;35.06
5877;BME280;2964;42.144;24.730;2023-03-09T10:53:27;146711.56;;;20.74;34.27
5877;BME280;2964;42.144;24.730;2023-03-09T10:56:05;146663.41;;;20.54;34.96
5877;BME280;2964;42.144;24.730;2023-03-09T10:58:34;146514.09;;;19.94;34.75
5877;BME280;2964;42.144;24.730;2023-03-09T11:01:03;146612.78;;;20.34;34.97
5877;BME280;2964;42.144;24.730;2023-03-09T11:03:33;146678.66;;;20.60;35.38
5877;BME280;2964;42.144;24.730;2023-03-09T11:06:21;146674.81;;;20.59;35.29
5877;BME280;2964;42.144;24.730;2023-03-09T11:08:54;146660.91;;;20.53;34.63
5877;BME280;2964;42.144;24.730;2023-03-09T11:11:24;146671.00;;;20.57;33.90
5877;BME280;2964;42.144;24.730;2023-03-09T11:13:52;146617.84;;;20.36;34.65
5877;BME280;2964;42.144;24.730;2023-03-09T11:16:22;146634.31;;;20.42;34.78
5877;BME280;2964;42.144;24.730;2023-03-09T11:19:04;146605.25;;;20.31;34.02
5877;BME280;2964;42.144;24.730;2023-03-09T11:21:31;146466.06;;;19.74;34.84
5877;BME280;2964;42.144;24.730;2023-03-09T11:24:00;146483.78;;;19.81;34.92
5877;BME280;2964;42.144;24.730;2023-03-09T11:26:32;146343.34;;;19.24;34.98
5877;BME280;2964;42.144;24.730;2023-03-09T11:29:05;146436.94;;;19.62;35.60
5877;BME280;2964;42.144;24.730;2023-03-09T11:31:38;146420.47;;;19.56;35.62
5877;BME280;2964;42.144;24.730;2023-03-09T11:34:07;146299.09;;;19.06;35.30
5877;BME280;2964;42.144;24.730;2023-03-09T11:36:40;146339.53;;;19.23;34.96
5877;BME280;2964;42.144;24.730;2023-03-09T11:39:14;146190.31;;;18.62;35.16
5877;BME280;2964;42.144;24.730;2023-03-09T11:41:45;146194.13;;;18.64;35.70
5877;BME280;2964;42.144;24.730;2023-03-09T11:44:22;146180.22;;;18.58;35.58
5877;BME280;2964;42.144;24.730;2023-03-09T11:46:51;146197.91;;;18.65;36.27
5877;BME280;2964;42.144;24.730;2023-03-09T11:49:22;146067.75;;;18.12;35.80
5877;BME280;2964;42.144;24.730;2023-03-09T11:51:52;146106.94;;;18.28;36.16
5877;BME280;2964;42.144;24.730;2023-03-09T11:54:22;146191.63;;;18.63;36.28
5877;BME280;2964;42.144;24.730;2023-03-09T11:56:54;146132.19;;;18.39;36.56
5877;BME280;2964;42.144;24.730;2023-03-09T11:59:25;146187.81;;;18.61;36.92
5877;BME280;2964;42.144;24.730;2023-03-09T12:01:58;146197.91;;;18.65;36.42
5877;BME280;2964;42.144;24.730;2023-03-09T12:04:26;146205.53;;;18.68;36.59
5877;BME280;2964;42.144;24.730;2023-03-09T12:06:56;146080.41;;;18.18;36.50
5877;BME280;2964;42.144;24.730;2023-03-09T12:09:35;146134.72;;;18.40;36.45
5877;BME280;2964;42.144;24.730;2023-03-09T12:12:20;146129.69;;;18.38;36.84
5877;BME280;2964;42.144;24.730;2023-03-09T12:14:51;146197.91;;;18.65;36.85
5877;BME280;2964;42.144;24.730;2023-03-09T12:17:22;146192.88;;;18.63;36.53
5877;BME280;2964;42.144;24.730;2023-03-09T12:19:53;146146.13;;;18.44;36.17
5877;BME280;2964;42.144;24.730;2023-03-09T12:22:25;146210.56;;;18.70;36.79
5877;BME280;2964;42.144;24.730;2023-03-09T12:24:56;146208.03;;;18.69;35.88
5877;BME280;2964;42.144;24.730;2023-03-09T12:27:27;146230.78;;;18.79;35.39
5877;BME280;2964;42.144;24.730;2023-03-09T12:30:07;146230.78;;;18.79;35.82
5877;BME280;2964;42.144;24.730;2023-03-09T12:32:38;146180.22;;;18.58;35.38
5877;BME280;2964;42.144;24.730;2023-03-09T12:35:55;146230.78;;;18.79;35.03
5877;BME280;2964;42.144;24.730;2023-03-09T12:38:16;146223.16;;;18.76;35.40
5877;BME280;2964;42.144;24.730;2023-03-09T12:40:44;146218.13;;;18.74;35.70
5877;BME280;2964;42.144;24.730;2023-03-09T12:46:53;146304.13;;;19.08;36.41
5877;BME280;2964;42.144;24.730;2023-03-09T12:49:27;146314.28;;;19.13;35.98
5877;BME280;2964;42.144;24.730;2023-03-09T12:52:09;146310.47;;;19.11;35.48
5877;BME280;2964;42.144;24.730;2023-03-09T12:54:38;146352.19;;;19.28;36.16
5877;BME280;2964;42.144;24.730;2023-03-09T12:57:10;146342.09;;;19.24;36.42
5877;BME280;2964;42.144;24.730;2023-03-09T12:59:42;146349.66;;;19.27;36.44
5877;BME280;2964;42.144;24.730;2023-03-09T13:02:23;146316.78;;;19.14;35.68
5877;BME280;2964;42.144;24.730;2023-03-09T13:08:01;146311.72;;;19.12;36.22
5877;BME280;2964;42.144;24.730;2023-03-09T13:10:31;146334.50;;;19.21;35.94
5877;BME280;2964;42.144;24.730;2023-03-09T13:13:32;146374.97;;;19.37;35.76
5877;BME280;2964;42.144;24.730;2023-03-09T13:16:35;146364.84;;;19.33;35.36
5877;BME280;2964;42.144;24.730;2023-03-09T13:22:36;146326.88;;;19.18;35.88
5877;BME280;2964;42.144;24.730;2023-03-09T13:25:41;146334.50;;;19.21;36.03
5877;BME280;2964;42.144;24.730;2023-03-09T13:28:21;146311.72;;;19.12;35.87
5877;BME280;2964;42.144;24.730;2023-03-09T13:30:52;146342.09;;;19.24;35.71